Bookmark and Share
Track history (hours):
 

Dragonfly

Last reported at 2014-Apr-12 03:13 UTC. Time now 2014-Apr-18 16:11 UTC.
Position N 39°24' W 027°57'.

Type: Sailing vessel. MMSI: 211505290.

NotesDate/timePositionNaut miles runAvg speedWind from/ knotsBaromVisibWave heightAir tempDewpointWater temp
2014-Apr-12 03:13N 39°24' W 027°57'4 5.5
2014-Apr-12 02:33N 39°20' W 027°59'7 6.6
2014-Apr-12 01:33N 39°14' W 028°00'6 5.7
2014-Apr-12 00:33N 39°09' W 028°04'6 5.8
2014-Apr-11 23:34N 39°04' W 028°08'6 6.1
2014-Apr-11 22:33N 38°59' W 028°13'6 5.9
2014-Apr-11 21:34N 38°54' W 028°17'6 5.8
2014-Apr-11 20:33N 38°49' W 028°21'6 5.9
2014-Apr-11 19:33N 38°44' W 028°25'6 6.0
2014-Apr-11 18:33N 38°39' W 028°30'6 5.9
2014-Apr-11 17:33N 38°34' W 028°34'4 3.6
2014-Apr-11 16:32N 38°32' W 028°38'0 0.0
2014-Apr-10 12:25N 38°32' W 028°37'0 0.1
2014-Apr-10 11:33N 38°32' W 028°38'1 1.3
2014-Apr-10 10:32N 38°31' W 028°38'6 6.4
2014-Apr-10 09:33N 38°29' W 028°45'6 6.5
2014-Apr-10 08:33N 38°27' W 028°53'6 6.0
2014-Apr-10 07:33N 38°25' W 029°01'6 5.7
2014-Apr-10 06:33N 38°24' W 029°08'5 4.8
2014-Apr-10 05:33N 38°23' W 029°14'4 4.5
2014-Apr-10 04:33N 38°22' W 029°19'5 4.8
2014-Apr-10 03:33N 38°20' W 029°25'5 4.8
2014-Apr-10 02:33N 38°19' W 029°31'5 4.6
2014-Apr-10 01:33N 38°18' W 029°37'5 5.1
2014-Apr-10 00:33N 38°17' W 029°43'6 6.0
2014-Apr-09 23:33N 38°16' W 029°51'7 6.3
2014-Apr-09 22:30N 38°15' W 029°59'  

Dump ship's entire track history

sailing weather and tide predictions

Dragonfly — DLBV — position and weather